sensor_id;sensor_type;location;lat;lon;timestamp;pressure;altitude;pressure_sealevel;temperature;humidity
70015;BME280;57358;51.094;6.760;2023-02-19T00:01:28;101312.50;;;9.34;100.00
70015;BME280;57358;51.094;6.760;2023-02-19T00:04:01;101164.94;;;8.39;100.00
70015;BME280;57358;51.094;6.760;2023-02-19T00:06:31;101339.59;;;9.57;100.00
70015;BME280;57358;51.094;6.760;2023-02-19T00:08:58;101355.03;;;9.65;100.00
70015;BME280;57358;51.094;6.760;2023-02-19T00:11:28;101360.13;;;9.68;100.00
70015;BME280;57358;51.094;6.760;2023-02-19T00:13:57;101364.72;;;9.63;100.00
70015;BME280;57358;51.094;6.760;2023-02-19T00:16:37;101309.16;;;9.29;100.00
70015;BME280;57358;51.094;6.760;2023-02-19T00:19:07;101363.72;;;9.65;100.00
70015;BME280;57358;51.094;6.760;2023-02-19T00:21:33;101203.75;;;8.77;100.00
70015;BME280;57358;51.094;6.760;2023-02-19T00:24:02;101355.06;;;9.63;100.00
70015;BME280;57358;51.094;6.760;2023-02-19T00:26:30;101285.78;;;9.25;100.00
70015;BME280;57358;51.094;6.760;2023-02-19T00:28:57;101341.63;;;9.49;100.00
70015;BME280;57358;51.094;6.760;2023-02-19T00:31:26;101327.00;;;9.43;100.00
70015;BME280;57358;51.094;6.760;2023-02-19T00:33:57;101178.88;;;8.65;100.00
70015;BME280;57358;51.094;6.760;2023-02-19T00:36:25;101353.31;;;9.64;100.00
70015;BME280;57358;51.094;6.760;2023-02-19T00:38:52;101262.22;;;9.25;100.00
70015;BME280;57358;51.094;6.760;2023-02-19T00:41:20;101357.59;;;9.66;100.00
70015;BME280;57358;51.094;6.760;2023-02-19T00:46:16;101320.50;;;9.53;100.00
70015;BME280;57358;51.094;6.760;2023-02-19T00:48:43;101246.72;;;9.18;100.00
70015;BME280;57358;51.094;6.760;2023-02-19T00:51:10;101286.28;;;9.34;100.00
70015;BME280;57358;51.094;6.760;2023-02-19T00:53:37;101285.69;;;9.50;100.00
70015;BME280;57358;51.094;6.760;2023-02-19T00:56:05;101295.56;;;9.43;100.00
70015;BME280;57358;51.094;6.760;2023-02-19T00:58:32;101313.91;;;9.43;100.00
70015;BME280;57358;51.094;6.760;2023-02-19T01:00:59;101239.91;;;9.14;100.00
70015;BME280;57358;51.094;6.760;2023-02-19T01:03:26;101314.22;;;9.57;100.00
70015;BME280;57358;51.094;6.760;2023-02-19T01:05:53;101278.19;;;9.41;100.00
70015;BME280;57358;51.094;6.760;2023-02-19T01:08:20;101344.31;;;9.71;100.00
70015;BME280;57358;51.094;6.760;2023-02-19T01:10:46;101260.44;;;9.25;100.00
70015;BME280;57358;51.094;6.760;2023-02-19T01:13:13;101304.31;;;9.66;100.00
70015;BME280;57358;51.094;6.760;2023-02-19T01:15:40;101326.50;;;9.79;100.00
70015;BME280;57358;51.094;6.760;2023-02-19T01:18:06;101278.16;;;9.42;100.00
70015;BME280;57358;51.094;6.760;2023-02-19T01:20:32;101099.53;;;8.41;100.00
70015;BME280;57358;51.094;6.760;2023-02-19T01:22:59;101311.69;;;9.78;100.00
70015;BME280;57358;51.094;6.760;2023-02-19T01:25:25;101335.28;;;9.78;100.00
70015;BME280;57358;51.094;6.760;2023-02-19T01:27:52;101263.63;;;9.33;100.00
70015;BME280;57358;51.094;6.760;2023-02-19T01:30:18;101225.72;;;9.20;100.00
70015;BME280;57358;51.094;6.760;2023-02-19T01:32:45;101307.06;;;9.63;100.00
70015;BME280;57358;51.094;6.760;2023-02-19T01:35:12;101319.31;;;9.38;100.00
70015;BME280;57358;51.094;6.760;2023-02-19T01:37:38;101206.44;;;8.99;100.00
70015;BME280;57358;51.094;6.760;2023-02-19T01:40:06;101349.25;;;9.78;100.00
70015;BME280;57358;51.094;6.760;2023-02-19T01:42:32;101091.28;;;8.28;100.00
70015;BME280;57358;51.094;6.760;2023-02-19T01:45:20;101337.78;;;9.81;100.00
70015;BME280;57358;51.094;6.760;2023-02-19T01:47:51;101306.41;;;9.56;100.00
70015;BME280;57358;51.094;6.760;2023-02-19T01:50:19;101336.06;;;9.80;100.00
70015;BME280;57358;51.094;6.760;2023-02-19T01:52:46;101238.75;;;9.22;100.00
70015;BME280;57358;51.094;6.760;2023-02-19T01:55:12;101292.03;;;9.44;100.00
70015;BME280;57358;51.094;6.760;2023-02-19T01:57:44;101336.88;;;9.82;100.00
70015;BME280;57358;51.094;6.760;2023-02-19T02:00:14;101333.41;;;9.82;100.00
70015;BME280;57358;51.094;6.760;2023-02-19T02:02:42;101343.03;;;9.81;100.00
70015;BME280;57358;51.094;6.760;2023-02-19T02:05:19;101307.84;;;9.65;100.00
70015;BME280;57358;51.094;6.760;2023-02-19T02:07:48;101316.75;;;9.61;100.00
70015;BME280;57358;51.094;6.760;2023-02-19T02:10:33;101322.78;;;9.63;100.00
70015;BME280;57358;51.094;6.760;2023-02-19T02:13:00;101213.03;;;9.09;100.00
70015;BME280;57358;51.094;6.760;2023-02-19T02:15:34;101345.84;;;9.76;100.00
70015;BME280;57358;51.094;6.760;2023-02-19T02:28:35;101345.91;;;9.75;100.00
70015;BME280;57358;51.094;6.760;2023-02-19T02:31:12;101346.78;;;9.74;100.00
70015;BME280;57358;51.094;6.760;2023-02-19T02:33:47;101237.56;;;9.07;100.00
70015;BME280;57358;51.094;6.760;2023-02-19T02:36:22;101342.59;;;9.70;100.00
70015;BME280;57358;51.094;6.760;2023-02-19T02:38:52;101349.09;;;9.59;100.00
70015;BME280;57358;51.094;6.760;2023-02-19T02:41:20;101353.44;;;9.61;100.00
70015;BME280;57358;51.094;6.760;2023-02-19T02:43:46;101237.03;;;8.97;100.00
70015;BME280;57358;51.094;6.760;2023-02-19T02:46:17;101357.94;;;9.57;100.00
70015;BME280;57358;51.094;6.760;2023-02-19T02:48:50;101351.84;;;9.56;100.00
70015;BME280;57358;51.094;6.760;2023-02-19T02:51:25;101250.19;;;8.95;100.00
70015;BME280;57358;51.094;6.760;2023-02-19T02:53:59;101290.09;;;9.26;100.00
70015;BME280;57358;51.094;6.760;2023-02-19T02:56:48;101276.56;;;9.14;100.00
70015;BME280;57358;51.094;6.760;2023-02-19T02:59:18;101354.31;;;9.59;100.00
70015;BME280;57358;51.094;6.760;2023-02-19T03:01:51;101364.16;;;9.54;100.00
70015;BME280;57358;51.094;6.760;2023-02-19T03:04:52;101169.31;;;8.39;100.00
70015;BME280;57358;51.094;6.760;2023-02-19T03:07:59;101363.22;;;9.55;100.00
70015;BME280;57358;51.094;6.760;2023-02-19T03:10:43;101172.16;;;8.33;100.00
70015;BME280;57358;51.094;6.760;2023-02-19T03:13:32;101361.53;;;9.54;100.00
70015;BME280;57358;51.094;6.760;2023-02-19T03:16:24;101372.00;;;9.54;100.00
70015;BME280;57358;51.094;6.760;2023-02-19T03:19:13;101375.53;;;9.53;100.00
70015;BME280;57358;51.094;6.760;2023-02-19T03:24:22;101383.50;;;9.50;100.00
70015;BME280;57358;51.094;6.760;2023-02-19T03:27:08;101327.03;;;9.18;100.00
70015;BME280;57358;51.094;6.760;2023-02-19T03:29:39;101378.09;;;9.55;100.00
70015;BME280;57358;51.094;6.760;2023-02-19T03:32:14;101364.00;;;9.34;100.00
70015;BME280;57358;51.094;6.760;2023-02-19T03:34:47;101360.53;;;9.33;100.00
70015;BME280;57358;51.094;6.760;2023-02-19T03:37:34;101147.88;;;8.04;100.00
70015;BME280;57358;51.094;6.760;2023-02-19T03:40:02;101294.06;;;8.89;100.00
70015;BME280;57358;51.094;6.760;2023-02-19T03:42:57;101396.72;;;9.47;100.00
70015;BME280;57358;51.094;6.760;2023-02-19T03:48:36;101400.09;;;9.51;100.00
70015;BME280;57358;51.094;6.760;2023-02-19T03:51:38;101408.03;;;9.48;100.00
70015;BME280;57358;51.094;6.760;2023-02-19T03:54:15;101409.00;;;9.45;100.00
70015;BME280;57358;51.094;6.760;2023-02-19T03:56:51;101412.44;;;9.47;100.00
70015;BME280;57358;51.094;6.760;2023-02-19T04:02:12;101306.22;;;8.90;100.00
70015;BME280;57358;51.094;6.760;2023-02-19T04:04:44;101290.97;;;8.77;100.00
70015;BME280;57358;51.094;6.760;2023-02-19T04:07:12;101422.91;;;9.47;100.00
70015;BME280;57358;51.094;6.760;2023-02-19T04:09:42;101331.38;;;8.94;100.00
70015;BME280;57358;51.094;6.760;2023-02-19T04:12:11;101414.56;;;9.36;100.00
70015;BME280;57358;51.094;6.760;2023-02-19T04:14:58;101427.00;;;9.31;100.00
70015;BME280;57358;51.094;6.760;2023-02-19T04:17:30;101376.75;;;8.94;100.00
70015;BME280;57358;51.094;6.760;2023-02-19T04:20:02;101428.91;;;9.26;100.00
70015;BME280;57358;51.094;6.760;2023-02-19T04:22:32;101415.34;;;9.14;100.00
70015;BME280;57358;51.094;6.760;2023-02-19T04:24:59;101381.75;;;8.75;100.00
70015;BME280;57358;51.094;6.760;2023-02-19T04:27:26;101394.59;;;8.83;100.00
70015;BME280;57358;51.094;6.760;2023-02-19T04:29:52;101438.63;;;8.97;100.00
70015;BME280;57358;51.094;6.760;2023-02-19T04:32:19;101309.19;;;8.27;100.00
70015;BME280;57358;51.094;6.760;2023-02-19T04:34:45;101434.34;;;8.94;100.00
70015;BME280;57358;51.094;6.760;2023-02-19T04:37:11;101458.19;;;9.12;100.00
70015;BME280;57358;51.094;6.760;2023-02-19T04:39:38;101393.19;;;8.73;100.00
70015;BME280;57358;51.094;6.760;2023-02-19T04:42:05;101369.19;;;8.60;100.00
70015;BME280;57358;51.094;6.760;2023-02-19T04:44:34;101469.53;;;9.12;100.00
70015;BME280;57358;51.094;6.760;2023-02-19T04:47:00;101387.50;;;8.60;100.00
70015;BME280;57358;51.094;6.760;2023-02-19T04:49:27;101467.16;;;9.05;100.00
70015;BME280;57358;51.094;6.760;2023-02-19T04:51:53;101387.72;;;8.54;100.00
70015;BME280;57358;51.094;6.760;2023-02-19T04:54:20;101470.75;;;9.02;100.00
70015;BME280;57358;51.094;6.760;2023-02-19T04:56:46;101469.78;;;9.05;100.00
70015;BME280;57358;51.094;6.760;2023-02-19T04:59:12;101391.13;;;8.56;100.00
70015;BME280;57358;51.094;6.760;2023-02-19T05:01:39;101454.91;;;8.80;100.00
70015;BME280;57358;51.094;6.760;2023-02-19T05:04:05;101356.31;;;8.26;100.00
70015;BME280;57358;51.094;6.760;2023-02-19T05:06:32;101316.09;;;8.02;100.00
70015;BME280;57358;51.094;6.760;2023-02-19T05:08:58;101364.94;;;8.28;100.00
70015;BME280;57358;51.094;6.760;2023-02-19T05:11:24;101441.28;;;8.69;100.00
70015;BME280;57358;51.094;6.760;2023-02-19T05:13:51;101489.47;;;8.90;100.00
70015;BME280;57358;51.094;6.760;2023-02-19T05:16:17;101431.88;;;8.63;100.00
70015;BME280;57358;51.094;6.760;2023-02-19T05:18:44;101469.78;;;8.78;100.00
70015;BME280;57358;51.094;6.760;2023-02-19T05:21:12;101453.41;;;8.71;100.00
70015;BME280;57358;51.094;6.760;2023-02-19T05:23:39;101428.28;;;8.37;100.00
70015;BME280;57358;51.094;6.760;2023-02-19T05:26:17;101472.34;;;8.79;100.00
70015;BME280;57358;51.094;6.760;2023-02-19T05:28:46;101502.47;;;8.93;100.00
70015;BME280;57358;51.094;6.760;2023-02-19T05:31:13;101382.66;;;8.19;100.00
70015;BME280;57358;51.094;6.760;2023-02-19T05:33:40;101523.34;;;8.94;100.00
70015;BME280;57358;51.094;6.760;2023-02-19T05:36:11;101415.44;;;8.30;100.00
70015;BME280;57358;51.094;6.760;2023-02-19T05:38:38;101355.44;;;7.98;100.00
70015;BME280;57358;51.094;6.760;2023-02-19T05:41:12;101521.75;;;8.90;100.00
70015;BME280;57358;51.094;6.760;2023-02-19T05:43:39;101438.41;;;8.50;100.00
70015;BME280;57358;51.094;6.760;2023-02-19T05:46:07;101499.72;;;8.69;100.00
70015;BME280;57358;51.094;6.760;2023-02-19T05:48:33;101422.59;;;8.25;100.00
70015;BME280;57358;51.094;6.760;2023-02-19T05:51:05;101455.31;;;8.38;100.00
70015;BME280;57358;51.094;6.760;2023-02-19T05:53:32;101307.34;;;7.46;100.00
70015;BME280;57358;51.094;6.760;2023-02-19T05:55:59;101506.13;;;8.59;100.00
70015;BME280;57358;51.094;6.760;2023-02-19T05:58:27;101540.50;;;8.76;100.00
70015;BME280;57358;51.094;6.760;2023-02-19T06:00:53;101507.09;;;8.56;100.00
70015;BME280;57358;51.094;6.760;2023-02-19T06:03:20;101543.19;;;8.73;100.00
70015;BME280;57358;51.094;6.760;2023-02-19T06:05:47;101414.81;;;7.93;100.00
70015;BME280;57358;51.094;6.760;2023-02-19T06:08:14;101542.97;;;8.81;100.00
70015;BME280;57358;51.094;6.760;2023-02-19T06:10:42;101529.59;;;8.62;100.00
70015;BME280;57358;51.094;6.760;2023-02-19T06:13:09;101490.81;;;8.47;100.00
70015;BME280;57358;51.094;6.760;2023-02-19T06:15:36;101518.41;;;8.57;100.00
70015;BME280;57358;51.094;6.760;2023-02-19T06:18:03;101322.41;;;7.38;100.00
70015;BME280;57358;51.094;6.760;2023-02-19T06:20:29;101326.72;;;7.39;100.00
70015;BME280;57358;51.094;6.760;2023-02-19T06:22:56;101488.81;;;8.25;100.00
70015;BME280;57358;51.094;6.760;2023-02-19T06:25:22;101511.84;;;8.44;100.00
70015;BME280;57358;51.094;6.760;2023-02-19T06:27:49;101553.66;;;8.73;100.00
70015;BME280;57358;51.094;6.760;2023-02-19T06:30:15;101472.44;;;8.20;100.00
70015;BME280;57358;51.094;6.760;2023-02-19T06:32:42;101526.50;;;8.49;100.00
70015;BME280;57358;51.094;6.760;2023-02-19T06:35:08;101456.41;;;8.01;100.00
70015;BME280;57358;51.094;6.760;2023-02-19T06:37:35;101518.09;;;8.38;100.00
70015;BME280;57358;51.094;6.760;2023-02-19T06:40:01;101469.00;;;8.18;100.00
70015;BME280;57358;51.094;6.760;2023-02-19T06:42:32;101282.09;;;6.86;100.00
70015;BME280;57358;51.094;6.760;2023-02-19T06:44:59;101525.75;;;8.14;100.00
70015;BME280;57358;51.094;6.760;2023-02-19T06:47:25;101498.81;;;8.11;100.00
70015;BME280;57358;51.094;6.760;2023-02-19T06:49:55;101595.13;;;8.57;100.00
70015;BME280;57358;51.094;6.760;2023-02-19T06:52:21;101557.84;;;8.19;100.00
70015;BME280;57358;51.094;6.760;2023-02-19T06:54:48;101581.59;;;8.43;100.00
70015;BME280;57358;51.094;6.760;2023-02-19T06:57:14;101594.47;;;8.51;100.00
70015;BME280;57358;51.094;6.760;2023-02-19T06:59:41;101478.81;;;7.80;100.00
70015;BME280;57358;51.094;6.760;2023-02-19T07:02:10;101615.34;;;8.52;100.00
70015;BME280;57358;51.094;6.760;2023-02-19T07:04:36;101391.59;;;7.22;100.00
70015;BME280;57358;51.094;6.760;2023-02-19T07:07:03;101561.19;;;8.25;100.00
70015;BME280;57358;51.094;6.760;2023-02-19T07:09:31;101618.78;;;8.54;100.00
70015;BME280;57358;51.094;6.760;2023-02-19T07:11:58;101534.06;;;7.97;100.00
70015;BME280;57358;51.094;6.760;2023-02-19T07:14:26;101636.13;;;8.58;100.00
70015;BME280;57358;51.094;6.760;2023-02-19T07:16:53;101603.13;;;8.53;100.00
70015;BME280;57358;51.094;6.760;2023-02-19T07:19:20;101639.50;;;8.62;100.00
70015;BME280;57358;51.094;6.760;2023-02-19T07:21:46;101642.19;;;8.59;100.00
70015;BME280;57358;51.094;6.760;2023-02-19T07:24:12;101606.00;;;8.44;100.00
70015;BME280;57358;51.094;6.760;2023-02-19T07:26:39;101535.00;;;7.95;100.00
70015;BME280;57358;51.094;6.760;2023-02-19T07:29:05;101605.44;;;8.32;100.00
70015;BME280;57358;51.094;6.760;2023-02-19T07:31:32;101646.19;;;8.39;100.00
70015;BME280;57358;51.094;6.760;2023-02-19T07:33:59;101635.22;;;8.27;100.00
70015;BME280;57358;51.094;6.760;2023-02-19T07:36:27;101586.41;;;7.96;100.00
70015;BME280;57358;51.094;6.760;2023-02-19T07:38:58;101675.63;;;8.48;100.00
70015;BME280;57358;51.094;6.760;2023-02-19T07:41:25;101681.75;;;8.48;100.00
70015;BME280;57358;51.094;6.760;2023-02-19T07:43:52;101662.13;;;8.32;100.00
70015;BME280;57358;51.094;6.760;2023-02-19T07:46:19;101615.00;;;8.01;100.00
70015;BME280;57358;51.094;6.760;2023-02-19T07:48:47;101654.34;;;8.29;100.00
70015;BME280;57358;51.094;6.760;2023-02-19T07:51:16;101689.50;;;8.51;100.00
70015;BME280;57358;51.094;6.760;2023-02-19T07:53:45;101676.59;;;8.45;100.00
70015;BME280;57358;51.094;6.760;2023-02-19T07:56:12;101634.81;;;8.09;100.00
70015;BME280;57358;51.094;6.760;2023-02-19T07:58:39;101691.50;;;8.42;100.00
70015;BME280;57358;51.094;6.760;2023-02-19T08:01:17;101704.41;;;8.48;100.00
70015;BME280;57358;51.094;6.760;2023-02-19T08:03:44;101602.59;;;7.76;100.00
70015;BME280;57358;51.094;6.760;2023-02-19T08:06:11;101725.41;;;8.46;100.00
70015;BME280;57358;51.094;6.760;2023-02-19T08:08:38;101708.22;;;8.36;100.00
70015;BME280;57358;51.094;6.760;2023-02-19T08:11:05;101724.28;;;8.55;100.00
70015;BME280;57358;51.094;6.760;2023-02-19T08:13:51;101730.03;;;8.68;100.00
70015;BME280;57358;51.094;6.760;2023-02-19T08:16:18;101730.03;;;8.68;100.00
70015;BME280;57358;51.094;6.760;2023-02-19T08:19:05;101680.13;;;8.44;100.00
70015;BME280;57358;51.094;6.760;2023-02-19T08:21:31;101660.19;;;8.38;100.00
70015;BME280;57358;51.094;6.760;2023-02-19T08:23:59;101674.81;;;8.46;100.00
70015;BME280;57358;51.094;6.760;2023-02-19T08:26:26;101654.22;;;8.33;100.00
70015;BME280;57358;51.094;6.760;2023-02-19T08:28:52;101716.28;;;8.61;100.00
70015;BME280;57358;51.094;6.760;2023-02-19T08:31:18;101738.59;;;8.74;100.00
70015;BME280;57358;51.094;6.760;2023-02-19T08:33:45;101684.44;;;8.45;100.00
70015;BME280;57358;51.094;6.760;2023-02-19T08:36:11;101649.97;;;8.29;100.00
70015;BME280;57358;51.094;6.760;2023-02-19T08:38:38;101740.69;;;8.93;100.00
70015;BME280;57358;51.094;6.760;2023-02-19T08:41:06;101747.63;;;8.94;100.00
70015;BME280;57358;51.094;6.760;2023-02-19T08:43:33;101639.78;;;8.20;100.00
70015;BME280;57358;51.094;6.760;2023-02-19T08:46:00;101740.38;;;9.04;100.00
70015;BME280;57358;51.094;6.760;2023-02-19T08:48:27;101738.38;;;9.12;100.00
70015;BME280;57358;51.094;6.760;2023-02-19T08:50:56;101748.53;;;9.24;100.00
70015;BME280;57358;51.094;6.760;2023-02-19T08:53:23;101650.06;;;8.57;100.00
70015;BME280;57358;51.094;6.760;2023-02-19T08:55:51;101744.75;;;9.33;100.00
70015;BME280;57358;51.094;6.760;2023-02-19T08:58:17;101755.22;;;9.33;100.00
70015;BME280;57358;51.094;6.760;2023-02-19T09:00:44;101721.56;;;9.21;100.00
70015;BME280;57358;51.094;6.760;2023-02-19T09:03:10;101737.09;;;9.27;100.00
70015;BME280;57358;51.094;6.760;2023-02-19T09:05:37;101709.56;;;9.12;100.00
70015;BME280;57358;51.094;6.760;2023-02-19T09:08:04;101736.84;;;9.34;100.00
70015;BME280;57358;51.094;6.760;2023-02-19T09:10:31;101689.75;;;9.33;100.00
70015;BME280;57358;51.094;6.760;2023-02-19T09:12:57;101748.56;;;9.79;100.00
70015;BME280;57358;51.094;6.760;2023-02-19T09:15:24;101626.06;;;9.03;100.00
70015;BME280;57358;51.094;6.760;2023-02-19T09:17:51;101743.28;;;9.81;100.00
70015;BME280;57358;51.094;6.760;2023-02-19T09:20:18;101768.00;;;9.72;100.00
70015;BME280;57358;51.094;6.760;2023-02-19T09:22:45;101741.53;;;9.53;100.00
70015;BME280;57358;51.094;6.760;2023-02-19T09:25:11;101760.75;;;9.52;100.00
70015;BME280;57358;51.094;6.760;2023-02-19T09:27:38;101583.94;;;8.21;100.00
70015;BME280;57358;51.094;6.760;2023-02-19T09:30:04;101684.81;;;8.64;100.00
70015;BME280;57358;51.094;6.760;2023-02-19T09:32:32;101791.66;;;9.42;100.00
70015;BME280;57358;51.094;6.760;2023-02-19T09:34:58;101769.19;;;9.33;100.00
70015;BME280;57358;51.094;6.760;2023-02-19T09:37:26;101774.94;;;9.46;100.00
70015;BME280;57358;51.094;6.760;2023-02-19T09:39:53;101804.75;;;9.42;100.00
70015;BME280;57358;51.094;6.760;2023-02-19T09:42:23;101712.31;;;8.77;100.00
70015;BME280;57358;51.094;6.760;2023-02-19T09:44:52;101690.22;;;8.58;100.00
70015;BME280;57358;51.094;6.760;2023-02-19T09:47:21;101813.69;;;9.35;100.00
70015;BME280;57358;51.094;6.760;2023-02-19T09:49:57;101805.72;;;9.38;100.00
70015;BME280;57358;51.094;6.760;2023-02-19T09:55:03;101812.09;;;9.29;100.00
70015;BME280;57358;51.094;6.760;2023-02-19T09:57:35;101777.41;;;8.90;100.00
70015;BME280;57358;51.094;6.760;2023-02-19T10:02:37;101805.97;;;8.99;100.00
70015;BME280;57358;51.094;6.760;2023-02-19T10:05:12;101834.75;;;8.99;100.00
70015;BME280;57358;51.094;6.760;2023-02-19T10:07:45;101836.00;;;8.86;100.00
70015;BME280;57358;51.094;6.760;2023-02-19T10:12:45;101859.63;;;9.15;100.00
70015;BME280;57358;51.094;6.760;2023-02-19T10:15:36;101300.34;;;5.79;100.00
70015;BME280;57358;51.094;6.760;2023-02-19T10:18:04;101876.59;;;9.33;100.00
70015;BME280;57358;51.094;6.760;2023-02-19T10:20:36;101807.84;;;8.94;100.00
70015;BME280;57358;51.094;6.760;2023-02-19T10:23:04;101845.47;;;9.23;100.00
70015;BME280;57358;51.094;6.760;2023-02-19T10:25:32;101901.25;;;9.26;100.00
70015;BME280;57358;51.094;6.760;2023-02-19T10:28:00;101914.94;;;9.03;100.00
70015;BME280;57358;51.094;6.760;2023-02-19T10:30:32;101882.69;;;9.03;100.00
70015;BME280;57358;51.094;6.760;2023-02-19T10:33:11;101910.94;;;9.23;100.00
70015;BME280;57358;51.094;6.760;2023-02-19T10:35:57;101908.22;;;9.58;100.00
70015;BME280;57358;51.094;6.760;2023-02-19T10:38:29;101914.28;;;9.61;100.00
70015;BME280;57358;51.094;6.760;2023-02-19T10:41:03;101929.88;;;9.64;100.00
70015;BME280;57358;51.094;6.760;2023-02-19T10:43:34;101947.38;;;9.63;100.00
70015;BME280;57358;51.094;6.760;2023-02-19T10:46:06;101945.38;;;9.73;100.00
70015;BME280;57358;51.094;6.760;2023-02-19T10:48:41;101930.63;;;9.69;100.00
70015;BME280;57358;51.094;6.760;2023-02-19T10:51:11;101802.47;;;9.00;100.00
70015;BME280;57358;51.094;6.760;2023-02-19T10:53:47;101928.38;;;9.86;100.00
70015;BME280;57358;51.094;6.760;2023-02-19T10:56:25;101923.22;;;9.83;100.00
70015;BME280;57358;51.094;6.760;2023-02-19T10:58:52;101922.78;;;9.98;100.00
70015;BME280;57358;51.094;6.760;2023-02-19T11:01:21;101861.97;;;9.56;100.00
70015;BME280;57358;51.094;6.760;2023-02-19T11:03:49;101903.09;;;9.84;100.00
70015;BME280;57358;51.094;6.760;2023-02-19T11:06:19;101933.56;;;10.17;100.00
70015;BME280;57358;51.094;6.760;2023-02-19T11:08:59;101891.44;;;9.94;100.00
70015;BME280;57358;51.094;6.760;2023-02-19T11:13:58;101927.69;;;10.09;100.00
70015;BME280;57358;51.094;6.760;2023-02-19T11:22:00;101903.28;;;10.35;100.00
70015;BME280;57358;51.094;6.760;2023-02-19T11:24:33;101872.44;;;10.14;100.00
70015;BME280;57358;51.094;6.760;2023-02-19T11:27:04;101911.69;;;10.47;100.00
70015;BME280;57358;51.094;6.760;2023-02-19T11:29:32;101790.94;;;9.65;100.00
70015;BME280;57358;51.094;6.760;2023-02-19T11:35:03;101913.91;;;10.32;100.00
70015;BME280;57358;51.094;6.760;2023-02-19T11:37:52;101906.13;;;10.28;100.00
70015;BME280;57358;51.094;6.760;2023-02-19T11:40:23;101913.22;;;10.24;100.00
70015;BME280;57358;51.094;6.760;2023-02-19T11:46:20;101894.81;;;10.54;100.00
70015;BME280;57358;51.094;6.760;2023-02-19T11:49:02;101860.09;;;10.46;100.00
70015;BME280;57358;51.094;6.760;2023-02-19T11:54:45;101879.88;;;10.83;100.00
70015;BME280;57358;51.094;6.760;2023-02-19T11:57:34;101893.06;;;10.81;100.00
70015;BME280;57358;51.094;6.760;2023-02-19T12:00:29;101887.28;;;10.96;100.00
70015;BME280;57358;51.094;6.760;2023-02-19T12:03:16;101875.31;;;10.88;100.00
70015;BME280;57358;51.094;6.760;2023-02-19T12:17:02;101860.16;;;10.71;100.00
70015;BME280;57358;51.094;6.760;2023-02-19T12:19:44;101870.09;;;10.61;100.00
70015;BME280;57358;51.094;6.760;2023-02-19T12:30:25;101870.75;;;10.93;100.00
70015;BME280;57358;51.094;6.760;2023-02-19T12:38:46;101876.66;;;10.74;100.00
70015;BME280;57358;51.094;6.760;2023-02-19T12:43:58;101863.13;;;10.60;100.00
70015;BME280;57358;51.094;6.760;2023-02-19T12:46:40;101875.19;;;10.66;100.00
70015;BME280;57358;51.094;6.760;2023-02-19T12:49:16;101873.41;;;10.66;100.00
70015;BME280;57358;51.094;6.760;2023-02-19T12:51:50;101797.59;;;10.04;100.00
70015;BME280;57358;51.094;6.760;2023-02-19T12:54:33;101875.13;;;10.67;100.00
70015;BME280;57358;51.094;6.760;2023-02-19T12:57:03;101766.97;;;10.04;100.00
70015;BME280;57358;51.094;6.760;2023-02-19T12:59:45;101871.28;;;10.77;100.00
70015;BME280;57358;51.094;6.760;2023-02-19T13:02:32;101885.72;;;10.91;100.00
70015;BME280;57358;51.094;6.760;2023-02-19T13:07:41;101881.78;;;10.77;100.00
70015;BME280;57358;51.094;6.760;2023-02-19T13:10:30;101890.47;;;10.80;100.00
70015;BME280;57358;51.094;6.760;2023-02-19T13:13:04;101804.69;;;10.55;100.00
70015;BME280;57358;51.094;6.760;2023-02-19T13:15:38;101868.09;;;10.94;100.00
70015;BME280;57358;51.094;6.760;2023-02-19T13:18:15;101871.22;;;11.04;100.00
70015;BME280;57358;51.094;6.760;2023-02-19T13:20:43;101804.84;;;10.75;100.00
70015;BME280;57358;51.094;6.760;2023-02-19T13:29:02;101769.50;;;10.07;100.00
70015;BME280;57358;51.094;6.760;2023-02-19T13:37:21;101798.56;;;9.73;100.00
70015;BME280;57358;51.094;6.760;2023-02-19T13:39:50;101803.91;;;9.70;100.00
70015;BME280;57358;51.094;6.760;2023-02-19T13:42:30;101818.81;;;9.68;100.00
70015;BME280;57358;51.094;6.760;2023-02-19T13:45:00;101906.84;;;10.05;100.00
70015;BME280;57358;51.094;6.760;2023-02-19T13:47:46;101898.16;;;10.03;100.00
70015;BME280;57358;51.094;6.760;2023-02-19T13:50:31;101901.59;;;10.05;100.00
70015;BME280;57358;51.094;6.760;2023-02-19T13:53:00;101815.22;;;9.42;100.00
70015;BME280;57358;51.094;6.760;2023-02-19T13:58:50;101921.59;;;9.79;100.00
70015;BME280;57358;51.094;6.760;2023-02-19T14:01:18;101700.06;;;8.14;100.00
70015;BME280;57358;51.094;6.760;2023-02-19T14:03:52;101955.81;;;9.43;100.00
70015;BME280;57358;51.094;6.760;2023-02-19T14:06:20;101967.19;;;9.42;100.00
70015;BME280;57358;51.094;6.760;2023-02-19T14:08:50;101981.84;;;9.49;100.00
70015;BME280;57358;51.094;6.760;2023-02-19T14:27:51;101930.31;;;8.47;100.00
70015;BME280;57358;51.094;6.760;2023-02-19T14:30:20;102028.47;;;9.02;100.00
70015;BME280;57358;51.094;6.760;2023-02-19T14:32:48;102042.28;;;9.07;100.00
70015;BME280;57358;51.094;6.760;2023-02-19T14:35:47;101935.50;;;8.48;100.00
70015;BME280;57358;51.094;6.760;2023-02-19T14:38:20;101970.22;;;8.92;100.00
70015;BME280;57358;51.094;6.760;2023-02-19T14:40:47;101957.06;;;8.94;100.00
70015;BME280;57358;51.094;6.760;2023-02-19T14:43:18;102046.53;;;9.47;100.00
70015;BME280;57358;51.094;6.760;2023-02-19T14:45:57;101975.78;;;9.14;100.00
70015;BME280;57358;51.094;6.760;2023-02-19T14:48:30;102046.75;;;9.72;100.00
70015;BME280;57358;51.094;6.760;2023-02-19T14:51:05;102043.47;;;9.64;100.00
70015;BME280;57358;51.094;6.760;2023-02-19T14:53:37;101866.63;;;8.48;100.00
70015;BME280;57358;51.094;6.760;2023-02-19T14:56:05;102019.53;;;9.44;100.00